Time,TemperatureF,DewpointF,PressureIn,WindDirection,WindDirectionDegrees,WindSpeedMPH,WindSpeedGustMPH,Humidity,HourlyPrecipIn,Conditions,Clouds,dailyrainin,SoftwareType,DateUTC
2013-03-04 00:08:00,40.7,35.0,30.19,North,351,3.0,5.0,81,0.00,,,0.00,weatherlink.com 1.10,2013-03-04 05:08:00,
2013-03-04 00:24:00,40.9,36.0,30.18,North,351,4.0,5.0,81,0.00,,,0.00,weatherlink.com 1.10,2013-03-04 05:24:00,
2013-03-04 00:38:00,41.1,35.0,30.19,North,351,3.0,5.0,80,0.00,,,0.00,weatherlink.com 1.10,2013-03-04 05:38:00,
2013-03-04 00:53:00,41.0,35.0,30.18,North,351,2.0,4.0,79,0.00,,,0.00,weatherlink.com 1.10,2013-03-04 05:53:00,
2013-03-04 01:08:00,41.0,35.0,30.18,North,351,1.0,3.0,80,0.00,,,0.00,weatherlink.com 1.10,2013-03-04 06:08:00,
2013-03-04 01:23:00,41.7,35.0,30.18,North,351,2.0,3.0,78,0.00,,,0.00,weatherlink.com 1.10,2013-03-04 06:23:00,
2013-03-04 01:38:00,42.1,35.0,30.17,North,351,1.0,3.0,76,0.00,,,0.00,weatherlink.com 1.10,2013-03-04 06:38:00,
2013-03-04 01:53:00,42.1,35.0,30.17,North,351,2.0,2.0,75,0.00,,,0.00,weatherlink.com 1.10,2013-03-04 06:53:00,
2013-03-04 02:08:00,42.3,35.0,30.17,North,351,0.0,1.0,75,0.00,,,0.00,weatherlink.com 1.10,2013-03-04 07:08:00,
2013-03-04 02:23:00,42.8,35.0,30.17,North,351,1.0,2.0,74,0.00,,,0.00,weatherlink.com 1.10,2013-03-04 07:23:00,
2013-03-04 02:38:00,43.3,38.0,30.17,NNE,17,4.0,7.0,81,0.00,,,0.00,weatherlink.com 1.10,2013-03-04 07:38:00,
2013-03-04 02:53:00,41.3,37.0,30.17,NNE,20,2.0,4.0,84,0.00,,,0.00,weatherlink.com 1.10,2013-03-04 07:53:00,
2013-03-04 03:08:00,40.8,36.0,30.16,NNE,16,1.0,3.0,84,0.00,,,0.00,weatherlink.com 1.10,2013-03-04 08:08:00,
2013-03-04 03:23:00,41.1,36.0,30.16,North,11,3.0,5.0,81,0.00,,,0.00,weatherlink.com 1.10,2013-03-04 08:23:00,
2013-03-04 03:38:00,40.5,34.0,30.16,North,360,3.0,4.0,79,0.00,,,0.00,weatherlink.com 1.10,2013-03-04 08:38:00,
2013-03-04 03:53:00,40.1,35.0,30.16,North,360,4.0,5.0,81,0.00,,,0.00,weatherlink.com 1.10,2013-03-04 08:53:00,
2013-03-04 04:08:00,39.9,36.0,30.16,North,360,5.0,5.0,84,0.00,,,0.00,weatherlink.com 1.10,2013-03-04 09:08:00,
2013-03-04 04:23:00,39.6,36.0,30.16,North,355,4.0,6.0,85,0.00,,,0.00,weatherlink.com 1.10,2013-03-04 09:23:00,
2013-03-04 04:38:00,39.6,35.0,30.16,North,355,5.0,6.0,84,0.00,,,0.00,weatherlink.com 1.10,2013-03-04 09:38:00,
2013-03-04 04:53:00,39.6,35.0,30.16,North,355,5.0,6.0,84,0.00,,,0.00,weatherlink.com 1.10,2013-03-04 09:53:00,
2013-03-04 05:08:00,39.3,35.0,30.17,North,355,4.0,6.0,84,0.00,,,0.00,weatherlink.com 1.10,2013-03-04 10:08:00,
2013-03-04 05:23:00,39.3,34.0,30.18,North,355,4.0,5.0,81,0.00,,,0.00,weatherlink.com 1.10,2013-03-04 10:23:00,
2013-03-04 05:38:00,38.8,33.0,30.18,North,351,5.0,6.0,80,0.00,,,0.00,weatherlink.com 1.10,2013-03-04 10:38:00,
2013-03-04 05:53:00,38.9,33.0,30.19,NNW,348,5.0,5.0,79,0.00,,,0.00,weatherlink.com 1.10,2013-03-04 10:53:00,
2013-03-04 06:08:00,38.9,33.0,30.19,North,355,4.0,6.0,79,0.00,,,0.00,weatherlink.com 1.10,2013-03-04 11:08:00,
2013-03-04 06:23:00,39.3,33.0,30.20,North,355,4.0,5.0,77,0.00,,,0.00,weatherlink.com 1.10,2013-03-04 11:23:00,
2013-03-04 06:38:00,39.6,32.0,30.21,North,355,3.0,5.0,73,0.00,,,0.00,weatherlink.com 1.10,2013-03-04 11:38:00,
2013-03-04 06:53:00,40.5,32.0,30.21,North,355,3.0,4.0,71,0.00,,,0.00,weatherlink.com 1.10,2013-03-04 11:53:00,
2013-03-04 07:08:00,40.7,35.0,30.21,North,360,5.0,6.0,79,0.00,,,0.00,weatherlink.com 1.10,2013-03-04 12:08:00,
2013-03-04 07:23:00,41.3,35.0,30.21,NNE,15,4.0,6.0,78,0.00,,,0.00,weatherlink.com 1.10,2013-03-04 12:23:00,
2013-03-04 07:38:00,42.5,34.0,30.22,NE,34,3.0,4.0,73,0.00,,,0.00,weatherlink.com 1.10,2013-03-04 12:38:00,
2013-03-04 07:53:00,43.6,34.0,30.23,NE,38,2.0,5.0,70,0.00,,,0.00,weatherlink.com 1.10,2013-03-04 12:53:00,
2013-03-04 08:08:00,44.5,35.0,30.24,NNE,28,5.0,8.0,69,0.00,,,0.00,weatherlink.com 1.10,2013-03-04 13:08:00,
2013-03-04 08:24:00,45.3,35.0,30.25,NE,40,9.0,10.0,68,0.00,,,0.00,weatherlink.com 1.10,2013-03-04 13:24:00,
2013-03-04 08:39:00,46.2,34.0,30.25,NE,51,4.0,13.0,63,0.00,,,0.00,weatherlink.com 1.10,2013-03-04 13:39:00,
2013-03-04 08:54:00,47.0,34.0,30.26,NNE,30,11.0,15.0,60,0.00,,,0.00,weatherlink.com 1.10,2013-03-04 13:54:00,
2013-03-04 09:09:00,47.6,32.0,30.26,NNE,15,11.0,13.0,56,0.00,,,0.00,weatherlink.com 1.10,2013-03-04 14:09:00,
2013-03-04 09:24:00,48.9,34.0,30.26,North,360,11.0,13.0,58,0.00,,,0.00,weatherlink.com 1.10,2013-03-04 14:24:00,
2013-03-04 09:39:00,49.3,34.0,30.25,NNE,24,8.0,13.0,55,0.00,,,0.00,weatherlink.com 1.10,2013-03-04 14:39:00,
2013-03-04 09:54:00,50.0,31.0,30.25,NE,34,9.0,15.0,49,0.00,,,0.00,weatherlink.com 1.10,2013-03-04 14:54:00,
2013-03-04 10:09:00,50.7,33.0,30.24,ENE,69,11.0,16.0,52,0.00,,,0.00,weatherlink.com 1.10,2013-03-04 15:09:00,
2013-03-04 10:24:00,51.2,32.0,30.24,NE,40,9.0,17.0,48,0.00,,,0.00,weatherlink.com 1.10,2013-03-04 15:24:00,
2013-03-04 10:39:00,52.2,36.0,30.23,NE,49,8.0,14.0,54,0.00,,,0.00,weatherlink.com 1.10,2013-03-04 15:39:00,
2013-03-04 10:54:00,52.4,35.0,30.22,NNE,26,12.0,17.0,52,0.00,,,0.00,weatherlink.com 1.10,2013-03-04 15:54:00,
2013-03-04 11:09:00,53.6,31.0,30.23,NNW,338,3.0,11.0,43,0.00,,,0.00,weatherlink.com 1.10,2013-03-04 16:09:00,
2013-03-04 11:24:00,54.1,29.0,30.24,NNE,22,9.0,12.0,38,0.00,,,0.00,weatherlink.com 1.10,2013-03-04 16:24:00,
2013-03-04 11:39:00,54.8,29.0,30.23,NNE,17,1.0,9.0,38,0.00,,,0.00,weatherlink.com 1.10,2013-03-04 16:39:00,
2013-03-04 11:54:00,55.5,29.0,30.21,ENE,65,2.0,11.0,37,0.00,,,0.00,weatherlink.com 1.10,2013-03-04 16:54:00,
2013-03-04 12:09:00,56.4,33.0,30.21,NE,35,5.0,11.0,41,0.00,,,0.00,weatherlink.com 1.10,2013-03-04 17:09:00,
2013-03-04 12:24:00,57.2,35.0,30.20,NE,45,9.0,16.0,43,0.00,,,0.00,weatherlink.com 1.10,2013-03-04 17:24:00,
2013-03-04 12:40:00,57.0,29.0,30.20,ENE,61,1.0,11.0,34,0.00,,,0.00,weatherlink.com 1.10,2013-03-04 17:40:00,
2013-03-04 12:55:00,58.5,30.0,30.18,NNE,24,5.0,10.0,34,0.00,,,0.00,weatherlink.com 1.10,2013-03-04 17:55:00,
2013-03-04 13:10:00,59.1,28.0,30.18,NNW,333,0.0,12.0,30,0.00,,,0.00,weatherlink.com 1.10,2013-03-04 18:10:00,
2013-03-04 13:25:00,60.4,29.0,30.17,East,92,5.0,7.0,30,0.00,,,0.00,weatherlink.com 1.10,2013-03-04 18:25:00,
2013-03-04 13:40:00,60.0,29.0,30.16,North,351,4.0,10.0,31,0.00,,,0.00,weatherlink.com 1.10,2013-03-04 18:40:00,
2013-03-04 13:55:00,61.3,28.0,30.15,WNW,303,4.0,10.0,28,0.00,,,0.00,weatherlink.com 1.10,2013-03-04 18:55:00,
2013-03-04 14:10:00,61.8,31.0,30.14,NNE,25,3.0,8.0,31,0.00,,,0.00,weatherlink.com 1.10,2013-03-04 19:10:00,
2013-03-04 14:25:00,62.3,30.0,30.14,NNE,27,7.0,9.0,30,0.00,,,0.00,weatherlink.com 1.10,2013-03-04 19:25:00,
2013-03-04 14:40:00,62.6,32.0,30.14,ENE,65,0.0,8.0,32,0.00,,,0.00,weatherlink.com 1.10,2013-03-04 19:40:00,
2013-03-04 14:55:00,63.2,32.0,30.14,NE,34,2.0,11.0,31,0.00,,,0.00,weatherlink.com 1.10,2013-03-04 19:55:00,
2013-03-04 15:10:00,63.9,36.0,30.14,NNE,27,5.0,9.0,35,0.00,,,0.00,weatherlink.com 1.10,2013-03-04 20:10:00,
2013-03-04 15:25:00,64.3,37.0,30.13,NNE,23,5.0,10.0,37,0.00,,,0.00,weatherlink.com 1.10,2013-03-04 20:25:00,
2013-03-04 15:40:00,65.0,30.0,30.13,ENE,76,2.0,7.0,27,0.00,,,0.00,weatherlink.com 1.10,2013-03-04 20:40:00,
2013-03-04 15:55:00,65.8,33.0,30.13,NE,51,0.0,5.0,29,0.00,,,0.00,weatherlink.com 1.10,2013-03-04 20:55:00,
2013-03-04 16:10:00,65.9,32.0,30.13,SE,126,4.0,8.0,28,0.00,,,0.00,weatherlink.com 1.10,2013-03-04 21:10:00,
2013-03-04 16:25:00,65.6,33.0,30.13,ENE,76,4.0,4.0,30,0.00,,,0.00,weatherlink.com 1.10,2013-03-04 21:25:00,
2013-03-04 16:40:00,65.9,32.0,30.13,SE,126,2.0,6.0,28,0.00,,,0.00,weatherlink.com 1.10,2013-03-04 21:40:00,
2013-03-04 16:55:00,65.5,31.0,30.13,SE,137,4.0,6.0,28,0.00,,,0.00,weatherlink.com 1.10,2013-03-04 21:55:00,
2013-03-04 17:10:00,65.4,31.0,30.13,SE,145,2.0,6.0,28,0.00,,,0.00,weatherlink.com 1.10,2013-03-04 22:10:00,
2013-03-04 17:25:00,64.8,32.0,30.13,SSW,198,2.0,4.0,29,0.00,,,0.00,weatherlink.com 1.10,2013-03-04 22:25:00,
2013-03-04 17:40:00,63.8,32.0,30.14,SSW,201,0.0,3.0,31,0.00,,,0.00,weatherlink.com 1.10,2013-03-04 22:40:00,
2013-03-04 17:55:00,62.6,31.0,30.14,SSW,200,1.0,3.0,31,0.00,,,0.00,weatherlink.com 1.10,2013-03-04 22:55:00,
2013-03-04 18:10:00,62.0,34.0,30.15,SSW,200,0.0,1.0,35,0.00,,,0.00,weatherlink.com 1.10,2013-03-04 23:10:00,
2013-03-04 18:25:00,61.2,34.0,30.15,SSW,200,1.0,1.0,36,0.00,,,0.00,weatherlink.com 1.10,2013-03-04 23:25:00,
2013-03-04 18:40:00,60.5,33.0,30.16,SSW,200,1.0,2.0,36,0.00,,,0.00,weatherlink.com 1.10,2013-03-04 23:40:00,
2013-03-04 18:55:00,59.7,33.0,30.16,SSW,200,1.0,3.0,36,0.00,,,0.00,weatherlink.com 1.10,2013-03-04 23:55:00,
2013-03-04 19:10:00,59.2,36.0,30.16,SSW,200,2.0,2.0,43,0.00,,,0.00,weatherlink.com 1.10,2013-03-05 00:10:00,
2013-03-04 19:25:00,58.4,40.0,30.16,SSW,200,2.0,3.0,50,0.00,,,0.00,weatherlink.com 1.10,2013-03-05 00:25:00,
2013-03-04 19:40:00,58.8,36.0,30.16,SSW,200,2.0,3.0,42,0.00,,,0.00,weatherlink.com 1.10,2013-03-05 00:40:00,
2013-03-04 19:55:00,58.0,41.0,30.16,WNW,298,4.0,9.0,53,0.00,,,0.00,weatherlink.com 1.10,2013-03-05 00:55:00,
2013-03-04 20:10:00,57.1,41.0,30.17,NW,304,7.0,9.0,55,0.00,,,0.00,weatherlink.com 1.10,2013-03-05 01:10:00,
2013-03-04 20:25:00,57.0,43.0,30.17,NW,306,7.0,8.0,59,0.00,,,0.00,weatherlink.com 1.10,2013-03-05 01:25:00,
2013-03-04 20:40:00,56.4,42.0,30.17,NW,323,6.0,7.0,58,0.00,,,0.00,weatherlink.com 1.10,2013-03-05 01:40:00,
2013-03-04 20:55:00,54.0,38.0,30.18,North,350,4.0,6.0,55,0.00,,,0.00,weatherlink.com 1.10,2013-03-05 01:55:00,
2013-03-04 21:10:00,52.8,38.0,30.18,North,351,4.0,6.0,57,0.00,,,0.00,weatherlink.com 1.10,2013-03-05 02:10:00,
2013-03-04 21:25:00,52.5,37.0,30.18,North,360,6.0,7.0,56,0.00,,,0.00,weatherlink.com 1.10,2013-03-05 02:25:00,
2013-03-04 21:40:00,52.1,35.0,30.18,North,355,4.0,6.0,53,0.00,,,0.00,weatherlink.com 1.10,2013-03-05 02:40:00,
2013-03-04 21:55:00,51.2,35.0,30.18,North,355,4.0,6.0,55,0.00,,,0.00,weatherlink.com 1.10,2013-03-05 02:55:00,
2013-03-04 22:10:00,50.8,35.0,30.19,North,355,3.0,5.0,55,0.00,,,0.00,weatherlink.com 1.10,2013-03-05 03:10:00,
2013-03-04 22:25:00,50.4,34.0,30.19,North,355,0.0,3.0,54,0.00,,,0.00,weatherlink.com 1.10,2013-03-05 03:25:00,
2013-03-04 22:40:00,50.6,37.0,30.20,ESE,109,5.0,6.0,59,0.00,,,0.00,weatherlink.com 1.10,2013-03-05 03:40:00,
2013-03-04 22:55:00,49.2,37.0,30.20,ESE,109,1.0,2.0,63,0.00,,,0.00,weatherlink.com 1.10,2013-03-05 03:55:00,
2013-03-04 23:10:00,48.9,38.0,30.20,ESE,109,0.0,3.0,66,0.00,,,0.00,weatherlink.com 1.10,2013-03-05 04:10:00,
2013-03-04 23:25:00,49.9,38.0,30.19,ESE,109,0.0,2.0,63,0.00,,,0.00,weatherlink.com 1.10,2013-03-05 04:25:00,
2013-03-04 23:40:00,50.5,40.0,30.19,ESE,109,0.0,2.0,68,0.00,,,0.00,weatherlink.com 1.10,2013-03-05 04:40:00,
2013-03-04 23:55:00,49.2,36.0,30.19,ESE,109,0.0,2.0,61,0.00,,,0.00,weatherlink.com 1.10,2013-03-05 04:55:00,